Rawson, Ohio
Current Conditions -  °F | °C
As of 12:53 AM on Tuesday 21 Oct 2014 (Local Time) from KFDY Reporting Station
Haze Haze  
Wind Chill: 51°   Ceiling: 2600
Heat Index: 51°   Visibility: 6mi
Dew Point: 48°   Wind: 9mph
Humidity: 89%   Direction: 270°W
Pressure: 29.87"   Gusts: NA
Location:  40.96°N, 83.78°W
Report Text: KFDY 210453Z AUTO 27008KT 6SM BR OVC026 11/09 A2987 RMK AO2 SLP113 T01060089 401390078
Loading
Personal Weather Stations






























Interactive Weather Map
Tropical Storm Tracking
New forecast layout! Learn more

10-Day Weather Forecast

Advertisements
Track Severe Weather on mobile